Time;durP1;ratioP1;P1;durP2;ratioP2;P2;SDS_P1;SDS_P2;PMS_P1;PMS_P2;Temp;Humidity;BMP_temperature;BMP_pressure;BME280_temperature;BME280_humidity;BME280_pressure;Samples;Min_cycle;Max_cycle;Signal;HPM_P1;HPM_P2
2023/03/09 00:02:15;;;;;;;3.50;3.20;;;;;;;9.28;58.38;94417.38;4976112;28;20675;-68
2023/03/09 00:04:42;;;;;;;3.25;3.05;;;;;;;9.19;58.36;94403.34;4973915;28;20300;-69
2023/03/09 00:07:08;;;;;;;3.42;3.13;;;;;;;8.99;58.68;94410.06;4976559;28;20240;-71
2023/03/09 00:09:35;;;;;;;4.45;2.88;;;;;;;9.04;58.97;94410.72;4974517;28;20298;-70
2023/03/09 00:12:02;;;;;;;4.68;2.90;;;;;;;9.04;59.13;94408.19;4975492;28;20745;-68
2023/03/09 00:14:30;;;;;;;4.72;3.03;;;;;;;8.96;59.56;94411.00;4973529;28;20741;-71
2023/03/09 00:16:57;;;;;;;2.58;2.38;;;;;;;8.94;59.59;94406.88;4975503;28;20682;-70
2023/03/09 00:19:26;;;;;;;5.78;3.38;;;;;;;8.92;59.86;94401.84;4978613;28;20315;-69
2023/03/09 00:21:53;;;;;;;4.47;3.08;;;;;;;8.78;59.44;94402.38;4980142;28;20204;-71
2023/03/09 00:24:24;;;;;;;5.82;3.05;;;;;;;8.66;59.96;94402.81;4978299;28;20204;-71
2023/03/09 00:26:52;;;;;;;3.45;2.78;;;;;;;8.52;60.77;94400.78;4978491;28;20239;-71
2023/03/09 00:29:19;;;;;;;4.80;3.08;;;;;;;8.56;60.42;94388.84;4980003;28;20299;-69
2023/03/09 00:31:47;;;;;;;2.72;2.53;;;;;;;8.43;60.71;94390.16;4978547;28;20228;-70
2023/03/09 00:34:15;;;;;;;3.17;2.80;;;;;;;8.22;61.74;94391.72;4979215;28;20692;-70
2023/03/09 00:36:42;;;;;;;4.55;2.97;;;;;;;8.06;61.65;94406.63;4981753;28;20223;-72
2023/03/09 00:39:11;;;;;;;4.30;3.28;;;;;;;8.01;62.07;94403.41;4978964;28;21472;-74
2023/03/09 00:41:38;;;;;;;3.15;2.88;;;;;;;8.04;61.85;94393.19;4980707;28;21022;-75
2023/03/09 00:44:05;;;;;;;4.32;3.13;;;;;;;8.19;61.51;94381.69;4981531;28;20213;-74
2023/03/09 00:46:34;;;;;;;5.03;2.97;;;;;;;8.12;62.21;94375.22;4984918;28;20764;-74
2023/03/09 00:49:06;;;;;;;3.75;3.35;;;;;;;8.18;61.44;94385.94;4984013;28;20314;-74
2023/03/09 00:51:33;;;;;;;3.13;2.83;;;;;;;8.18;61.51;94380.88;4982530;28;20681;-73
2023/03/09 00:54:00;;;;;;;3.88;3.50;;;;;;;8.11;62.40;94383.69;4983777;28;20288;-72
2023/03/09 00:56:29;;;;;;;3.90;2.58;;;;;;;8.23;61.84;94377.38;4981599;28;20846;-76
2023/03/09 00:58:56;;;;;;;3.33;3.13;;;;;;;8.24;61.85;94372.25;4982117;28;20353;-73
2023/03/09 01:01:24;;;;;;;6.38;3.10;;;;;;;8.20;61.75;94380.81;4979428;28;20296;-73
2023/03/09 01:03:51;;;;;;;4.28;3.15;;;;;;;8.12;62.51;94375.22;4982322;28;20239;-72
2023/03/09 01:06:20;;;;;;;3.60;3.30;;;;;;;8.07;62.60;94377.91;4986055;28;20202;-73
2023/03/09 01:08:47;;;;;;;5.75;3.17;;;;;;;8.14;62.17;94374.31;4983805;28;20224;-72
2023/03/09 01:11:15;;;;;;;3.58;2.60;;;;;;;8.13;62.35;94381.94;4985462;28;20205;-74
2023/03/09 01:13:42;;;;;;;3.50;3.15;;;;;;;8.17;61.89;94384.28;4980543;28;20979;-74
2023/03/09 01:16:09;;;;;;;3.50;2.95;;;;;;;8.08;62.90;94374.50;4981319;28;20237;-73
2023/03/09 01:18:36;;;;;;;5.15;3.83;;;;;;;8.15;62.00;94365.84;4979306;28;20319;-72
2023/03/09 01:21:03;;;;;;;3.90;3.47;;;;;;;8.26;62.06;94354.47;4983505;28;20640;-75
2023/03/09 01:23:32;;;;;;;4.82;3.20;;;;;;;8.24;61.81;94362.13;4980863;28;20867;-75
2023/03/09 01:25:59;;;;;;;5.78;2.80;;;;;;;8.12;62.82;94349.91;4978359;28;20675;-73
2023/03/09 01:28:26;;;;;;;3.92;3.00;;;;;;;7.97;62.68;94336.09;4976632;28;20323;-74
2023/03/09 01:30:53;;;;;;;3.40;3.05;;;;;;;8.03;63.17;94348.53;4978828;28;20295;-74
2023/03/09 01:33:19;;;;;;;3.05;2.67;;;;;;;8.13;62.85;94342.28;4976957;28;20852;-74
2023/03/09 01:35:46;;;;;;;4.35;3.20;;;;;;;8.04;63.21;94360.31;4976449;28;20249;-73
2023/03/09 01:38:13;;;;;;;4.28;3.60;;;;;;;8.00;63.17;94363.81;4980160;28;20681;-73
2023/03/09 01:40:45;;;;;;;3.85;3.05;;;;;;;8.14;62.92;94349.00;4979965;28;20310;-75
2023/03/09 01:43:31;;;;;;;5.38;3.42;;;;;;;7.98;63.80;94349.56;4981060;28;20313;-75
2023/03/09 01:46:34;;;;;;;3.58;3.28;;;;;;;8.04;63.53;94335.00;4975905;28;20213;-72
2023/03/09 01:49:06;;;;;;;3.55;3.28;;;;;;;7.77;63.95;94323.31;4977699;28;20295;-72
2023/03/09 01:51:37;;;;;;;4.78;3.78;;;;;;;8.11;63.44;94336.44;4983511;28;20267;-72
2023/03/09 01:54:07;;;;;;;4.65;3.63;;;;;;;8.08;63.42;94333.19;4976184;28;20205;-71
2023/03/09 01:56:37;;;;;;;5.38;3.92;;;;;;;8.08;63.72;94333.19;4982306;28;20236;-71
2023/03/09 01:59:07;;;;;;;3.95;3.28;;;;;;;7.97;63.64;94336.09;4982390;28;20254;-72
2023/03/09 02:01:36;;;;;;;4.32;3.88;;;;;;;8.06;62.83;94345.06;4982709;28;20226;-71
2023/03/09 02:04:09;;;;;;;6.35;3.30;;;;;;;8.18;63.16;94345.44;4981604;28;20299;-73
2023/03/09 02:06:36;;;;;;;8.52;3.72;;;;;;;8.23;63.23;94336.88;4982581;28;20256;-73
2023/03/09 02:09:12;;;;;;;4.93;4.47;;;;;;;8.17;63.09;94333.66;4983760;28;20682;-73
2023/03/09 02:11:41;;;;;;;5.47;3.75;;;;;;;8.14;63.28;94343.09;4980198;28;20209;-72
2023/03/09 02:14:09;;;;;;;5.15;3.65;;;;;;;8.26;63.29;94342.66;4978794;28;20209;-71
2023/03/09 02:16:35;;;;;;;7.95;4.85;;;;;;;8.09;63.37;94355.91;4981322;28;21871;-72
2023/03/09 02:19:02;;;;;;;10.75;4.75;;;;;;;8.18;63.73;94340.38;4981970;28;20326;-72
2023/03/09 02:21:36;;;;;;;8.18;4.07;;;;;;;8.02;64.06;94344.34;4980959;28;20717;-73
2023/03/09 02:24:12;;;;;;;4.82;4.43;;;;;;;8.06;63.93;94343.38;4976887;28;20204;-74
2023/03/09 02:26:46;;;;;;;4.45;4.07;;;;;;;8.01;63.80;94349.47;4975309;28;20340;-70
2023/03/09 02:29:14;;;;;;;4.25;3.85;;;;;;;7.84;64.34;94355.13;4977381;28;21903;-70
2023/03/09 02:31:41;;;;;;;8.40;4.30;;;;;;;7.77;64.56;94368.84;4976617;28;20590;-70
2023/03/09 02:34:09;;;;;;;7.50;4.18;;;;;;;7.93;64.76;94352.25;4973446;28;20284;-70
2023/03/09 02:36:36;;;;;;;7.25;4.60;;;;;;;7.89;64.82;94357.50;4974345;28;20217;-70
2023/03/09 02:39:09;;;;;;;6.93;4.72;;;;;;;7.93;64.94;94359.00;4973005;28;20359;-70
2023/03/09 02:41:36;;;;;;;4.03;3.65;;;;;;;8.03;64.22;94353.59;4973703;28;20294;-70
2023/03/09 02:44:02;;;;;;;7.88;5.43;;;;;;;8.22;64.02;94365.59;4973340;28;20311;-70
2023/03/09 02:46:31;;;;;;;6.38;4.93;;;;;;;8.17;64.02;94348.84;4975808;28;20303;-70
2023/03/09 02:48:57;;;;;;;5.40;4.90;;;;;;;8.11;64.19;94354.16;4976167;28;20704;-71
2023/03/09 02:51:24;;;;;;;4.38;3.97;;;;;;;8.03;64.45;94351.06;4976768;28;20237;-70
2023/03/09 02:53:51;;;;;;;7.32;4.32;;;;;;;8.05;64.62;94358.59;4977831;28;20299;-70
2023/03/09 02:56:17;;;;;;;5.85;4.50;;;;;;;8.25;63.74;94370.53;4976524;28;20318;-70
2023/03/09 02:58:44;;;;;;;5.30;3.85;;;;;;;8.20;63.56;94358.06;4976437;28;20291;-70
2023/03/09 03:01:10;;;;;;;4.85;3.80;;;;;;;8.30;63.86;94356.03;4977361;28;20304;-70
2023/03/09 03:03:39;;;;;;;4.82;3.65;;;;;;;8.20;63.45;94353.81;4976300;28;20351;-70
2023/03/09 03:06:06;;;;;;;3.33;3.08;;;;;;;8.18;63.34;94350.50;4974766;28;21519;-69
2023/03/09 03:08:35;;;;;;;6.05;3.70;;;;;;;8.19;63.09;94357.22;4976224;28;20303;-70
2023/03/09 03:11:01;;;;;;;5.85;3.97;;;;;;;8.18;62.80;94355.56;4977752;28;20574;-70
2023/03/09 03:13:28;;;;;;;4.10;3.25;;;;;;;8.11;64.09;94376.94;4976487;28;20322;-70
2023/03/09 03:15:59;;;;;;;5.95;3.80;;;;;;;8.20;63.25;94369.00;4975925;28;20312;-70
2023/03/09 03:18:25;;;;;;;8.80;3.30;;;;;;;8.35;62.58;94366.84;4976135;28;20221;-71
2023/03/09 03:20:54;;;;;;;4.38;3.95;;;;;;;8.29;62.37;94369.56;4976677;28;20312;-70
2023/03/09 03:23:21;;;;;;;7.13;3.47;;;;;;;8.32;63.30;94382.13;4975542;28;20295;-70
2023/03/09 03:25:48;;;;;;;4.50;3.90;;;;;;;8.23;63.31;94367.25;4974795;28;20351;-70
2023/03/09 03:28:14;;;;;;;5.60;3.75;;;;;;;8.20;63.70;94369.00;4976441;28;20232;-70
2023/03/09 03:30:41;;;;;;;5.88;3.42;;;;;;;8.13;63.94;94384.47;4976341;28;20284;-69
2023/03/09 03:33:08;;;;;;;4.10;3.70;;;;;;;8.12;63.86;94391.25;4976213;28;20347;-69
2023/03/09 03:35:35;;;;;;;3.33;3.03;;;;;;;8.17;63.75;94376.69;4975005;28;20358;-71
2023/03/09 03:38:03;;;;;;;3.88;3.53;;;;;;;8.23;63.87;94372.31;4976178;28;20754;-71
2023/03/09 03:40:30;;;;;;;6.80;3.33;;;;;;;8.31;63.58;94380.47;4976735;28;20278;-71
2023/03/09 03:42:57;;;;;;;3.55;3.30;;;;;;;8.39;63.67;94376.00;4976929;28;20300;-71
2023/03/09 03:45:23;;;;;;;3.90;3.53;;;;;;;8.32;62.97;94372.00;4976174;28;20300;-70
2023/03/09 03:47:50;;;;;;;3.50;3.25;;;;;;;8.33;63.38;94378.72;4973948;28;20299;-71
2023/03/09 03:50:17;;;;;;;3.80;3.40;;;;;;;8.39;62.98;94373.47;4976546;28;20695;-71
2023/03/09 03:52:43;;;;;;;5.20;3.95;;;;;;;8.21;63.44;94390.06;4975561;28;20319;-71
2023/03/09 03:55:11;;;;;;;9.70;4.00;;;;;;;8.08;63.54;94377.03;4976807;28;20986;-71
2023/03/09 03:57:38;;;;;;;4.68;3.97;;;;;;;8.06;64.75;94368.66;4976848;28;20316;-71
2023/03/09 04:00:09;;;;;;;6.65;4.47;;;;;;;7.96;63.74;94376.63;4974324;28;20260;-72
2023/03/09 04:02:36;;;;;;;4.30;3.75;;;;;;;7.97;64.51;94366.44;4976678;28;20204;-71
2023/03/09 04:05:03;;;;;;;4.35;3.78;;;;;;;7.86;65.45;94373.59;4975487;28;20746;-71
2023/03/09 04:07:29;;;;;;;4.60;4.07;;;;;;;7.68;65.47;94381.78;4975440;28;20354;-71
2023/03/09 04:09:56;;;;;;;6.10;3.63;;;;;;;7.80;64.54;94378.84;4974644;28;20283;-70
2023/03/09 04:12:24;;;;;;;4.15;3.83;;;;;;;7.88;65.22;94366.78;4974688;28;20248;-70
2023/03/09 04:14:51;;;;;;;4.93;3.45;;;;;;;7.71;66.02;94374.91;4974347;28;20266;-70
2023/03/09 04:17:17;;;;;;;12.50;3.83;;;;;;;7.46;66.02;94374.91;4976092;28;20319;-69
2023/03/09 04:19:44;;;;;;;4.57;4.03;;;;;;;7.44;66.12;94381.72;4975742;28;20316;-72
2023/03/09 04:22:11;;;;;;;7.75;3.70;;;;;;;7.44;66.83;94371.59;4973134;28;20296;-72
2023/03/09 04:24:37;;;;;;;4.20;3.90;;;;;;;7.48;66.02;94373.16;4976666;28;20291;-71
2023/03/09 04:27:04;;;;;;;6.00;4.00;;;;;;;7.58;65.54;94363.56;4976038;28;20272;-71
2023/03/09 04:29:32;;;;;;;11.43;4.10;;;;;;;7.43;66.37;94364.88;4975536;28;20255;-71
2023/03/09 04:31:59;;;;;;;9.82;3.88;;;;;;;7.34;66.91;94360.16;4975488;28;20300;-70
2023/03/09 04:34:26;;;;;;;5.47;3.88;;;;;;;7.41;67.20;94361.63;4975438;28;20236;-70
2023/03/09 04:36:52;;;;;;;7.57;4.22;;;;;;;7.68;66.69;94353.97;4975333;28;20302;-71
2023/03/09 04:39:19;;;;;;;11.10;4.07;;;;;;;7.56;66.29;94354.38;4975093;28;20212;-70
2023/03/09 04:41:46;;;;;;;5.10;4.05;;;;;;;7.64;66.65;94349.91;4975981;28;20761;-70
2023/03/09 04:44:12;;;;;;;14.20;6.57;;;;;;;7.75;66.26;94346.13;4975592;28;20675;-71
2023/03/09 04:46:40;;;;;;;9.57;7.45;;;;;;;7.79;66.61;94331.69;4974180;28;21065;-70
2023/03/09 04:49:07;;;;;;;11.32;6.55;;;;;;;7.84;66.22;94343.28;4974764;28;20263;-70
2023/03/09 04:51:34;;;;;;;12.40;7.70;;;;;;;7.70;66.25;94355.56;4975130;28;20299;-70
2023/03/09 04:54:00;;;;;;;9.35;6.50;;;;;;;7.65;66.72;94359.97;4975939;28;20319;-70
2023/03/09 04:56:27;;;;;;;15.40;8.88;;;;;;;7.62;66.12;94349.13;4976560;28;20262;-70
2023/03/09 04:58:55;;;;;;;12.40;6.78;;;;;;;7.65;66.64;94351.56;4975143;28;20296;-71
2023/03/09 05:01:21;;;;;;;6.78;5.35;;;;;;;7.74;66.98;94343.66;4976142;28;20244;-70
2023/03/09 05:03:50;;;;;;;9.85;4.85;;;;;;;7.76;66.58;94352.00;4978638;28;20221;-70
2023/03/09 05:06:16;;;;;;;8.65;4.75;;;;;;;7.79;67.51;94352.75;4977784;28;20308;-70
2023/03/09 05:08:43;;;;;;;8.02;5.30;;;;;;;7.75;66.47;94350.34;4979176;28;20741;-71
2023/03/09 05:11:10;;;;;;;8.70;5.75;;;;;;;7.88;66.46;94345.72;4980089;28;20278;-70
2023/03/09 05:13:36;;;;;;;10.88;5.10;;;;;;;8.10;64.91;94347.44;4976807;28;20645;-72
2023/03/09 05:16:07;;;;;;;10.65;4.90;;;;;;;7.96;65.22;94339.50;4978164;28;20213;-70
2023/03/09 05:18:34;;;;;;;11.23;5.28;;;;;;;7.91;66.01;94345.63;4979380;28;20418;-70
2023/03/09 05:21:05;;;;;;;19.38;9.15;;;;;;;8.04;65.91;94351.88;4977925;28;20319;-68
2023/03/09 05:23:31;;;;;;;20.70;10.80;;;;;;;8.38;65.80;94341.44;4977637;28;20316;-70
2023/03/09 05:25:59;;;;;;;11.18;8.52;;;;;;;9.44;61.87;94334.72;4977441;28;20689;-71
2023/03/09 05:28:26;;;;;;;12.27;7.28;;;;;;;10.91;58.32;94316.47;4977952;28;20351;-70
2023/03/09 05:30:53;;;;;;;12.95;6.10;;;;;;;12.31;54.26;94334.19;4979300;28;20304;-70
2023/03/09 05:33:19;;;;;;;13.23;8.48;;;;;;;13.28;49.54;94334.06;4978319;28;20209;-71
2023/03/09 05:35:46;;;;;;;16.05;9.82;;;;;;;13.99;48.85;94336.81;4979770;28;20304;-71
2023/03/09 05:38:14;;;;;;;7.78;5.93;;;;;;;14.59;45.99;94352.00;4978941;28;20293;-71
2023/03/09 05:40:41;;;;;;;9.75;5.50;;;;;;;14.83;45.38;94353.06;4979466;28;20348;-72
2023/03/09 05:43:07;;;;;;;7.78;5.82;;;;;;;15.26;44.87;94358.91;4978212;28;20323;-70
2023/03/09 05:45:34;;;;;;;11.85;7.70;;;;;;;15.94;43.09;94352.84;4977060;28;20981;-70
2023/03/09 05:48:01;;;;;;;14.98;8.43;;;;;;;16.56;41.78;94338.41;4977024;28;20296;-71
2023/03/09 05:50:28;;;;;;;9.10;7.90;;;;;;;17.09;40.83;94345.88;4977407;28;20224;-71
2023/03/09 05:52:54;;;;;;;10.32;7.50;;;;;;;17.38;39.63;94342.06;4978193;28;20301;-71
2023/03/09 05:55:22;;;;;;;8.70;7.90;;;;;;;17.78;38.52;94354.66;4978962;28;20308;-71
2023/03/09 05:57:49;;;;;;;12.40;8.23;;;;;;;18.09;37.90;94354.03;4976199;28;20893;-71
2023/03/09 06:00:16;;;;;;;20.70;9.73;;;;;;;18.67;37.13;94359.97;4977526;28;20314;-70
2023/03/09 06:02:43;;;;;;;16.35;8.93;;;;;;;18.83;36.08;94355.28;4975917;28;20329;-71
2023/03/09 06:05:10;;;;;;;13.35;7.95;;;;;;;18.47;36.84;94378.66;4978738;28;20336;-71
2023/03/09 06:07:36;;;;;;;13.85;8.40;;;;;;;18.08;37.37;94367.00;4976251;28;20205;-72
2023/03/09 06:10:03;;;;;;;17.20;10.60;;;;;;;17.79;37.76;94379.44;4978601;28;21700;-72
2023/03/09 06:12:31;;;;;;;18.58;9.40;;;;;;;17.60;38.45;94373.00;4976428;28;20326;-70
2023/03/09 06:14:58;;;;;;;12.73;8.68;;;;;;;17.72;38.18;94371.34;4977826;28;20770;-73
2023/03/09 06:17:25;;;;;;;9.10;6.93;;;;;;;18.07;37.12;94353.31;4979014;28;20284;-72
2023/03/09 06:19:53;;;;;;;17.15;8.27;;;;;;;18.29;37.22;94363.69;4977420;28;20228;-72
2023/03/09 06:22:20;;;;;;;14.00;7.10;;;;;;;18.01;36.96;94364.09;4978253;28;20295;-71
2023/03/09 06:24:46;;;;;;;9.23;7.22;;;;;;;17.92;37.09;94349.31;4977038;28;20713;-72
2023/03/09 06:27:13;;;;;;;12.25;7.43;;;;;;;17.87;37.24;94359.13;4978194;28;20707;-72
2023/03/09 06:29:41;;;;;;;12.55;7.20;;;;;;;17.80;37.41;94363.09;4978989;28;20300;-72
2023/03/09 06:32:08;;;;;;;10.68;6.35;;;;;;;17.58;37.57;94364.56;4977451;28;20323;-71
2023/03/09 06:34:35;;;;;;;12.88;6.97;;;;;;;17.29;38.16;94373.56;4977840;28;20379;-72
2023/03/09 06:37:02;;;;;;;12.20;7.38;;;;;;;17.31;38.09;94367.41;4976786;28;20764;-72
2023/03/09 06:39:29;;;;;;;11.98;7.65;;;;;;;17.24;38.43;94365.34;4976517;28;20228;-71
2023/03/09 06:41:56;;;;;;;11.27;7.68;;;;;;;17.20;38.31;94369.88;4978835;28;20256;-73
2023/03/09 06:44:22;;;;;;;12.77;7.90;;;;;;;16.89;38.54;94372.94;4976881;28;20287;-71
2023/03/09 06:46:50;;;;;;;11.85;7.78;;;;;;;16.32;39.76;94361.41;4976804;28;20295;-71
2023/03/09 06:49:17;;;;;;;10.75;7.80;;;;;;;16.09;40.47;94359.50;4976390;28;20273;-73
2023/03/09 06:51:44;;;;;;;15.32;7.75;;;;;;;15.99;40.84;94343.94;4969612;28;20284;-72
2023/03/09 06:54:10;;;;;;;13.70;7.80;;;;;;;16.16;40.47;94342.81;4978098;28;20232;-72
2023/03/09 06:56:37;;;;;;;16.63;9.07;;;;;;;16.16;40.30;94350.50;4977365;28;20228;-71
2023/03/09 06:59:04;;;;;;;14.48;8.88;;;;;;;16.03;40.31;94347.13;4974953;28;20284;-72
2023/03/09 07:01:33;;;;;;;22.15;8.63;;;;;;;16.02;40.71;94347.22;4976777;28;20322;-70
2023/03/09 07:04:01;;;;;;;17.33;7.78;;;;;;;16.60;39.92;94332.09;4977092;28;20691;-72
2023/03/09 07:06:28;;;;;;;10.38;8.27;;;;;;;17.13;38.32;94330.16;4978094;28;20222;-72
2023/03/09 07:08:54;;;;;;;11.05;8.25;;;;;;;17.27;38.59;94339.47;4978331;28;20236;-71
2023/03/09 07:11:21;;;;;;;12.55;8.38;;;;;;;17.57;38.14;94337.25;4975371;28;20307;-71
2023/03/09 07:13:48;;;;;;;17.75;8.05;;;;;;;17.94;37.26;94332.03;4977077;28;20245;-74
2023/03/09 07:16:15;;;;;;;14.65;8.73;;;;;;;18.03;37.02;94336.50;4978151;28;20241;-71
2023/03/09 07:18:41;;;;;;;13.75;7.80;;;;;;;17.78;36.85;94355.47;4976194;28;20295;-72
2023/03/09 07:21:11;;;;;;;13.65;8.43;;;;;;;17.92;36.78;94339.03;4976041;28;20366;-71
2023/03/09 07:23:37;;;;;;;12.05;7.88;;;;;;;18.91;35.73;94341.84;4975448;28;20241;-71
2023/03/09 07:26:05;;;;;;;16.33;7.35;;;;;;;19.61;33.97;94339.69;4975534;28;20323;-74
2023/03/09 07:28:32;;;;;;;12.55;7.90;;;;;;;19.73;33.97;94353.38;4975095;28;20333;-72
2023/03/09 07:30:59;;;;;;;12.40;7.35;;;;;;;19.87;33.84;94347.09;4977147;28;20292;-74
2023/03/09 07:33:26;;;;;;;20.48;9.05;;;;;;;20.11;33.37;94339.91;4978683;28;20624;-73
2023/03/09 07:35:52;;;;;;;17.02;8.95;;;;;;;20.24;33.23;94345.72;4976646;28;20331;-74
2023/03/09 07:38:20;;;;;;;15.93;10.00;;;;;;;20.72;32.66;94342.59;4974624;28;20359;-71
2023/03/09 07:40:47;;;;;;;21.38;9.65;;;;;;;21.52;31.66;94339.16;4975567;28;20343;-71
2023/03/09 07:43:14;;;;;;;11.85;9.57;;;;;;;22.02;30.70;94347.63;4974656;28;20295;-71
2023/03/09 07:45:41;;;;;;;23.88;9.55;;;;;;;22.36;30.17;94335.81;4974567;28;21045;-71
2023/03/09 07:48:08;;;;;;;13.95;9.25;;;;;;;21.90;30.53;94338.31;4974525;28;20201;-75
2023/03/09 07:50:35;;;;;;;14.43;8.93;;;;;;;21.75;30.88;94337.13;4974264;28;20710;-71
2023/03/09 07:53:02;;;;;;;9.38;8.40;;;;;;;21.60;31.05;94332.31;4973970;28;20228;-72
2023/03/09 07:55:34;;;;;;;11.38;8.63;;;;;;;21.45;31.27;94338.84;4974669;28;20371;-72
2023/03/09 07:58:00;;;;;;;12.38;7.95;;;;;;;21.25;31.56;94344.97;4975406;28;20196;-71
2023/03/09 08:00:28;;;;;;;14.80;8.18;;;;;;;20.90;31.81;94335.84;4974974;28;20301;-72
2023/03/09 08:02:56;;;;;;;14.82;6.78;;;;;;;20.37;32.96;94343.78;4976841;28;20212;-71
2023/03/09 08:05:22;;;;;;;10.70;7.55;;;;;;;20.56;32.39;94324.16;4974578;28;20629;-73
2023/03/09 08:07:50;;;;;;;12.13;8.18;;;;;;;21.43;31.18;94335.59;4975931;28;20344;-71
2023/03/09 08:10:17;;;;;;;12.18;8.40;;;;;;;20.51;32.54;94334.06;4976400;28;20236;-73
2023/03/09 08:12:48;;;;;;;18.35;8.40;;;;;;;19.55;34.49;94337.59;4968447;28;20745;-75
2023/03/09 08:15:18;;;;;;;10.48;7.53;;;;;;;20.39;33.20;94351.38;4975000;28;20231;-72
2023/03/09 08:17:45;;;;;;;16.38;8.07;;;;;;;21.02;32.26;94337.41;4977327;28;20205;-73
2023/03/09 08:20:12;;;;;;;21.92;9.25;;;;;;;21.86;31.32;94342.13;4974822;28;20327;-70
2023/03/09 08:22:39;;;;;;;22.52;9.65;;;;;;;21.94;31.08;94332.75;4975918;28;20363;-70
2023/03/09 08:25:06;;;;;;;34.80;10.85;;;;;;;20.77;32.82;94343.03;4975731;28;20259;-70
2023/03/09 08:27:38;;;;;;;13.00;8.50;;;;;;;19.07;35.73;94341.44;4976718;28;21006;-72
2023/03/09 08:30:07;;;;;;;18.98;9.68;;;;;;;19.53;35.56;94336.94;4973700;28;20337;-72
2023/03/09 08:32:34;;;;;;;14.85;9.07;;;;;;;20.24;34.22;94319.91;4976582;28;20208;-71
2023/03/09 08:35:01;;;;;;;13.48;8.10;;;;;;;20.55;33.75;94325.91;4975153;28;20297;-71
2023/03/09 08:37:28;;;;;;;15.05;8.13;;;;;;;19.36;35.48;94337.41;4975406;28;20240;-71
2023/03/09 08:39:55;;;;;;;11.93;8.27;;;;;;;20.05;34.68;94315.44;4977676;28;20306;-71
2023/03/09 08:42:22;;;;;;;18.17;8.63;;;;;;;21.15;33.23;94315.66;4977838;28;20235;-73
2023/03/09 08:44:48;;;;;;;18.17;9.15;;;;;;;22.43;31.18;94297.25;4978206;28;20617;-71
2023/03/09 08:47:16;;;;;;;14.48;8.35;;;;;;;23.93;29.33;94296.78;4978316;28;21662;-71
2023/03/09 08:49:43;;;;;;;14.43;7.50;;;;;;;22.79;29.62;94310.34;4978107;28;20263;-71
2023/03/09 08:52:10;;;;;;;12.88;6.78;;;;;;;18.94;35.61;94321.81;4980670;28;20205;-72
2023/03/09 08:54:36;;;;;;;13.05;7.45;;;;;;;16.36;41.02;94327.84;4977834;28;20279;-72
2023/03/09 08:57:03;;;;;;;9.63;7.32;;;;;;;15.97;42.52;94321.91;4980125;28;20259;-71
2023/03/09 08:59:31;;;;;;;18.00;7.80;;;;;;;16.80;41.22;94322.28;4978946;28;20327;-71
2023/03/09 09:01:58;;;;;;;12.13;7.18;;;;;;;17.13;40.22;94303.66;4981095;28;20225;-70
2023/03/09 09:04:26;;;;;;;18.27;7.32;;;;;;;16.81;40.70;94311.91;4976943;28;20722;-73
2023/03/09 09:06:53;;;;;;;17.58;7.38;;;;;;;16.01;42.41;94312.28;4977908;28;20685;-72
2023/03/09 09:09:20;;;;;;;10.05;7.07;;;;;;;15.87;42.89;94297.78;4977445;28;20213;-71
2023/03/09 09:11:47;;;;;;;16.88;7.30;;;;;;;16.13;42.60;94284.06;4979607;28;20684;-71
2023/03/09 09:14:13;;;;;;;9.80;6.47;;;;;;;16.20;42.18;94290.44;4978688;28;20197;-71
2023/03/09 09:16:40;;;;;;;10.40;7.30;;;;;;;15.88;43.33;94289.19;4979172;28;20794;-72
2023/03/09 09:19:07;;;;;;;15.50;6.97;;;;;;;15.98;43.38;94282.53;4979543;28;21050;-70
2023/03/09 09:21:35;;;;;;;10.50;7.22;;;;;;;16.44;42.94;94281.97;4976930;28;21184;-73
2023/03/09 09:24:02;;;;;;;19.95;7.85;;;;;;;16.08;42.97;94275.88;4978349;28;20315;-72
2023/03/09 09:26:29;;;;;;;13.52;6.47;;;;;;;15.91;43.35;94278.75;4978873;28;20325;-71
2023/03/09 09:28:55;;;;;;;10.35;6.35;;;;;;;15.76;43.37;94274.66;4977873;28;20227;-71
2023/03/09 09:31:23;;;;;;;18.88;6.80;;;;;;;15.46;44.44;94268.00;4977245;28;20680;-70
2023/03/09 09:33:49;;;;;;;16.60;7.55;;;;;;;15.39;44.56;94277.00;4978138;28;20682;-72
2023/03/09 09:36:18;;;;;;;13.98;8.48;;;;;;;15.37;44.74;94273.72;4978390;28;20301;-72
2023/03/09 09:38:47;;;;;;;13.30;6.95;;;;;;;15.64;44.19;94269.41;4978973;28;20212;-71
2023/03/09 09:41:19;;;;;;;10.30;5.85;;;;;;;16.26;43.39;94259.25;4976053;28;20312;-69
2023/03/09 09:43:50;;;;;;;9.55;5.55;;;;;;;16.95;41.88;94257.84;4979831;28;20304;-73
2023/03/09 09:46:19;;;;;;;8.20;5.88;;;;;;;17.68;40.03;94260.25;4978838;28;20287;-72
2023/03/09 09:48:48;;;;;;;8.38;4.65;;;;;;;18.10;39.47;94259.72;4978333;28;20236;-72
2023/03/09 09:51:33;;;;;;;6.82;5.57;;;;;;;18.46;38.17;94253.53;4979521;28;20309;-74
2023/03/09 09:54:08;;;;;;;19.15;5.68;;;;;;;18.51;38.26;94246.28;4978086;28;20291;-71
2023/03/09 09:56:44;;;;;;;6.50;4.75;;;;;;;18.32;38.40;94234.81;4977033;28;20224;-74
2023/03/09 09:59:16;;;;;;;8.20;5.25;;;;;;;17.87;39.20;94248.59;4978849;28;20331;-72
2023/03/09 10:01:51;;;;;;;7.15;5.88;;;;;;;17.78;39.84;94251.88;4977732;28;20353;-71
2023/03/09 10:04:23;;;;;;;7.30;4.93;;;;;;;17.84;39.80;94234.22;4976985;28;20294;-71
2023/03/09 10:06:52;;;;;;;5.00;3.92;;;;;;;18.06;39.49;94225.72;4976243;28;20318;-71
2023/03/09 10:09:25;;;;;;;3.65;3.35;;;;;;;18.42;39.33;94216.09;4978255;28;20341;-72
2023/03/09 10:11:55;;;;;;;5.25;2.85;;;;;;;18.86;38.25;94205.75;4978303;28;20217;-72
2023/03/09 10:14:29;;;;;;;7.07;3.10;;;;;;;19.05;38.18;94201.72;4978920;28;20336;-72
2023/03/09 10:17:00;;;;;;;7.10;2.95;;;;;;;19.33;38.19;94191.63;4977581;28;20760;-72
2023/03/09 10:19:33;;;;;;;2.65;2.45;;;;;;;19.37;38.29;94192.19;4976842;28;20912;-73
2023/03/09 10:22:01;;;;;;;2.00;1.90;;;;;;;19.43;37.56;94178.81;4978481;28;20316;-71
2023/03/09 10:24:33;;;;;;;1.30;1.20;;;;;;;19.41;37.24;94185.84;4979808;28;20217;-73
2023/03/09 10:27:02;;;;;;;1.55;1.40;;;;;;;19.16;37.77;94183.63;4977827;28;20708;-72
2023/03/09 10:29:43;;;;;;;3.08;1.58;;;;;;;19.22;38.23;94185.72;4977958;28;20245;-73
2023/03/09 10:32:19;;;;;;;1.60;1.50;;;;;;;19.36;38.15;94175.09;4974926;28;20211;-74
2023/03/09 10:34:54;;;;;;;2.17;1.65;;;;;;;19.73;37.82;94170.34;4968722;28;20290;-79
2023/03/09 10:37:25;;;;;;;2.20;1.80;;;;;;;19.93;37.60;94166.91;4982411;28;20209;-75
2023/03/09 10:39:53;;;;;;;3.42;2.15;;;;;;;20.24;37.07;94149.63;4982436;28;20765;-75
2023/03/09 10:42:21;;;;;;;1.70;1.58;;;;;;;20.61;36.43;94151.63;4981225;28;20256;-73
2023/03/09 10:45:01;;;;;;;1.98;1.70;;;;;;;20.88;36.03;94159.53;4980062;28;20292;-77
2023/03/09 10:47:54;;;;;;;2.05;1.83;;;;;;;20.93;35.40;94138.47;4981709;28;20212;-76
2023/03/09 10:50:22;;;;;;;1.55;1.45;;;;;;;20.85;35.75;94136.56;4975737;28;20355;-70
2023/03/09 10:52:49;;;;;;;3.45;2.00;;;;;;;20.62;35.61;94122.28;4974549;28;20209;-70
2023/03/09 10:55:32;;;;;;;2.50;2.30;;;;;;;20.61;36.38;94133.56;4976934;28;20299;-71
2023/03/09 10:58:00;;;;;;;2.13;1.92;;;;;;;20.64;36.10;94116.03;4975990;28;20215;-70
2023/03/09 11:00:27;;;;;;;3.33;1.75;;;;;;;20.58;35.40;94105.44;4973690;28;20295;-70
2023/03/09 11:02:56;;;;;;;2.25;1.65;;;;;;;20.57;35.84;94108.97;4974252;28;20323;-71
2023/03/09 11:05:24;;;;;;;1.77;1.60;;;;;;;20.57;36.10;94109.78;4973839;28;20295;-71
2023/03/09 11:07:53;;;;;;;2.13;1.33;;;;;;;20.52;36.25;94106.00;4978224;28;20296;-71
2023/03/09 11:10:29;;;;;;;3.47;1.10;;;;;;;20.48;36.29;94114.94;4973465;28;20205;-71
2023/03/09 11:12:57;;;;;;;1.90;1.80;;;;;;;20.59;36.05;94104.50;4975809;28;20299;-71
2023/03/09 11:15:28;;;;;;;1.10;1.10;;;;;;;20.79;35.73;94100.16;4974026;28;20296;-70
2023/03/09 11:17:56;;;;;;;1.60;1.50;;;;;;;20.73;35.94;94086.03;4974133;28;21395;-70
2023/03/09 11:20:33;;;;;;;2.08;1.58;;;;;;;20.76;35.17;94088.34;4972962;28;20784;-71
2023/03/09 11:23:06;;;;;;;2.88;1.63;;;;;;;20.59;35.72;94086.41;4976380;28;20441;-71
2023/03/09 11:25:46;;;;;;;2.97;2.00;;;;;;;20.54;36.34;94078.28;4977155;28;20204;-71
2023/03/09 11:28:26;;;;;;;1.95;1.80;;;;;;;20.55;36.23;94077.31;4976221;28;20386;-71
2023/03/09 11:30:56;;;;;;;3.72;1.55;;;;;;;20.76;35.42;94072.84;4975743;28;20303;-72
2023/03/09 11:33:24;;;;;;;5.55;1.50;;;;;;;20.79;35.50;94072.56;4976599;28;20279;-70
2023/03/09 11:35:54;;;;;;;2.95;1.98;;;;;;;20.88;36.03;94069.16;4976664;28;20307;-70
2023/03/09 11:38:22;;;;;;;4.22;1.58;;;;;;;20.87;35.64;94062.38;4976044;28;20229;-70
2023/03/09 11:40:58;;;;;;;1.58;1.48;;;;;;;20.68;35.66;94070.13;4974817;28;20293;-71